METAR AND TAF INFORMATION
METAR FOR EPWA
ADDS - METARS form results

(1104 UTC 18 August 2019)
Data provider http://aviationweather.gov/metar/data/
 
METAR text: EPWA 181100Z 18008KT 140V220 CAVOK 28/12 Q1011 NOSIG
Conditions at: EPWA (WARSAW/OKECIE , PL) observed 1100 UTC 18 August 2019
Temperature: 28.0°C (82°F)
Dewpoint: 12.0°C (54°F) [RH = 37%]
Pressure (altimeter): 29.85 inches Hg (1011.0 mb)
Winds: from the S (180 degrees) at 9 MPH (8 knots; 4.1 m/s)
Visibility: 6 or more miles (10+ km)
Ceiling: ceiling and visibility are OK
Clouds: unknown
Weather: no significant weather observed at this time

METAR text: EPWA 181030Z 18012KT 150V210 CAVOK 28/13 Q1011 NOSIG
Conditions at: EPWA (WARSAW/OKECIE , PL) observed 1030 UTC 18 August 2019
Temperature: 28.0°C (82°F)
Dewpoint: 13.0°C (55°F) [RH = 40%]
Pressure (altimeter): 29.85 inches Hg (1011.0 mb)
Winds: from the S (180 degrees) at 14 MPH (12 knots; 6.2 m/s)
Visibility: 6 or more miles (10+ km)
Ceiling: ceiling and visibility are OK
Clouds: unknown
Weather: no significant weather observed at this time

Forecast for: EPWA (WARSAW/OKECIE , PL)
Text: TAF EPWA 180830Z 1809/1909 18012KT CAVOK
Forecast period: 0900 UTC 18 August 2019 to 0300 UTC 19 August 2019
Forecast type: FROM: standard forecast or significant change
Winds: from the S (180 degrees) at 14 MPH (12 knots; 6.2 m/s)
Visibility: 6 or more miles 10+ km)
Ceiling: unknown
Clouds: missing
Weather: NSW  (no significant weather)
Text: BECMG 1903/1906 VRB02KT
Forecast period: 0300 to 0900 UTC 19 August 2019
Forecast type: BECOMING: Conditions expected to become as follows by 0600 UTC 19 August 2019
Winds: variable direction winds at 2 MPH (2 knots; 1.0 m/s)
Visibility: 6 or more miles 10+ km)
Ceiling: unknown
Clouds: missing
Weather: NSW  (no significant weather)

 AIRPORT MAP

 RUNWAY INFORMATION
Runway 11 Runway length 9186 ft Runway width 164 ft
Runway elevation 361 ft Runway displaced threshold 0 ft Runway heading 115
Runway 29 Runway length 9186 ft Runway width 164 ft
Runway elevation 344 ft Runway displaced threshold 1640 ft Runway heading 295
Runway 15 Runway length 12106 ft Runway width 197 ft
Runway elevation 351 ft Runway displaced threshold 0 ft Runway heading 152
Runway 33 Runway length 12106 ft Runway width 197 ft
Runway elevation 351 ft Runway displaced threshold 0 ft Runway heading 332

 AIRPORT FREQUENCIES
Type APP Name WARSZAWA A Frequency 128.8 MHZ
Type ATIS Name ATIS Frequency 120.45 MHZ
Type CLD Name CLNC DEL Frequency 121.6 MHZ
Type DIR Name WARSZAWA D Frequency 129.375 MHZ
Type GND Name GND Frequency 121.9 MHZ
Type TWR Name TWR Frequency 118.3 MHZ

 AIRPORT NEAR NAVIGATION AIDS
Type VOR-DME Name Okecie Frequency 113400 KHZ
Type NDB Name Piaseczno Frequency 330 KHZ
Type NDB Name Warszawa Frequency 336 KHZ
Type NDB Name Warszawa Frequency 412 KHZ
Type VOR-DME Name Zaborowek Frequency 114900 KHZ



Powered by Virtual Airlines Manager [v2.6.2]